Time;durP1;ratioP1;P1;durP2;ratioP2;P2;SDS_P1;SDS_P2;PMS_P1;PMS_P2;Temp;Humidity;BMP_temperature;BMP_pressure;BME280_temperature;BME280_humidity;BME280_pressure;Samples;Min_cycle;Max_cycle;Signal;HPM_P1;HPM_P2
2022/07/20 00:05:27;;;;;;;19.00;14.20;;;;;;;18.48;54.92;99046.09;432236;1273;108842;-42
2022/07/20 00:15:34;;;;;;;20.60;14.00;;;;;;;18.39;55.36;99044.88;432156;1273;108790;-44
2022/07/20 00:25:41;;;;;;;29.90;14.60;;;;;;;18.39;55.96;99041.61;432202;1273;96560;-43
2022/07/20 00:35:49;;;;;;;20.60;16.00;;;;;;;18.45;56.32;99038.06;432339;1273;108241;-42
2022/07/20 00:45:56;;;;;;;23.40;14.60;;;;;;;18.40;56.47;99031.70;432442;1273;108937;-42
2022/07/20 00:56:04;;;;;;;21.90;12.40;;;;;;;18.22;56.83;99029.75;432323;1273;95460;-46
2022/07/20 01:06:12;;;;;;;21.20;13.40;;;;;;;18.18;56.93;99028.36;432279;1273;108780;-42
2022/07/20 01:16:19;;;;;;;22.60;13.90;;;;;;;18.08;57.55;99035.06;432502;1272;96128;-43
2022/07/20 01:26:27;;;;;;;20.70;12.70;;;;;;;18.03;57.88;99037.05;432254;1273;95715;-47
2022/07/20 01:36:34;;;;;;;21.70;13.40;;;;;;;17.98;58.57;99039.67;432304;1273;107983;-44
2022/07/20 01:46:42;;;;;;;20.40;12.90;;;;;;;17.94;59.12;99038.27;432326;1273;108818;-41
2022/07/20 01:56:49;;;;;;;20.90;13.70;;;;;;;17.97;60.00;99034.37;432328;1271;95702;-43
2022/07/20 02:06:56;;;;;;;26.00;15.20;;;;;;;18.07;60.46;99030.05;432366;1271;108893;-43
2022/07/20 02:17:03;;;;;;;29.00;16.00;;;;;;;17.99;60.81;99033.25;432381;1271;107685;-43
2022/07/20 02:27:11;;;;;;;28.50;13.90;;;;;;;17.82;61.19;99027.41;432473;1271;96146;-43
2022/07/20 02:37:18;;;;;;;18.80;13.50;;;;;;;17.68;61.76;99026.85;432377;1271;108799;-45
2022/07/20 02:47:25;;;;;;;19.20;11.30;;;;;;;17.52;61.99;99031.84;432343;1271;95820;-44
2022/07/20 02:57:33;;;;;;;19.60;12.60;;;;;;;17.44;62.13;99042.24;432402;1271;109734;-42
2022/07/20 03:07:41;;;;;;;26.10;15.10;;;;;;;17.40;62.38;99048.39;432328;1271;107480;-42
2022/07/20 03:17:47;;;;;;;18.90;11.80;;;;;;;17.48;62.63;99049.20;432603;1271;108807;-42
2022/07/20 03:27:54;;;;;;;22.60;12.80;;;;;;;17.67;62.42;99052.10;432396;1271;95406;-44
2022/07/20 03:38:02;;;;;;;19.70;12.50;;;;;;;17.92;62.64;99056.90;432407;1271;107682;-42
2022/07/20 03:48:09;;;;;;;19.10;11.40;;;;;;;18.74;62.22;99057.35;432442;1271;108761;-43
2022/07/20 03:58:16;;;;;;;20.30;12.70;;;;;;;20.78;60.82;99061.98;432360;1271;95504;-48
2022/07/20 04:08:23;;;;;;;19.80;11.70;;;;;;;22.27;58.82;99071.71;432399;1271;109903;-46
2022/07/20 04:18:29;;;;;;;;;;;;;;;23.51;57.36;99077.02;432361;1271;108790;-43
2022/07/20 04:28:37;;;;;;;16.40;11.30;;;;;;;24.53;55.72;99076.88;432507;1271;108848;-43
2022/07/20 04:38:44;;;;;;;17.10;10.80;;;;;;;25.33;54.40;99087.20;432394;1273;96864;-42
2022/07/20 04:48:51;;;;;;;19.90;11.60;;;;;;;25.84;52.94;99093.59;432368;1271;110924;-43
2022/07/20 04:58:59;;;;;;;17.60;11.80;;;;;;;26.32;51.74;99109.50;432399;1271;108671;-43
2022/07/20 05:19:13;;;;;;;16.30;11.20;;;;;;;27.26;50.64;99102.63;432455;1271;111062;-44
2022/07/20 05:29:21;;;;;;;19.00;11.10;;;;;;;27.80;49.89;99109.83;432327;1271;108786;-44
2022/07/20 05:39:29;;;;;;;14.50;9.70;;;;;;;28.18;49.13;99110.48;432388;1271;97906;-47
2022/07/20 05:49:36;;;;;;;14.30;9.20;;;;;;;28.70;48.45;99113.99;432441;1271;111259;-45
2022/07/20 05:59:44;;;;;;;14.80;8.50;;;;;;;29.41;47.94;99112.88;432353;1271;108765;-45
2022/07/20 06:09:50;;;;;;;13.50;8.40;;;;;;;30.05;46.56;99120.10;432311;1273;98146;-44
2022/07/20 06:19:55;;;;;;;;;;;;;;;30.61;46.03;99131.98;432328;1273;111845;-44
2022/07/20 06:30:04;;;;;;;11.00;8.10;;;;;;;31.03;44.65;99137.36;432361;1271;108905;-46
2022/07/20 06:40:13;;;;;;;14.30;7.20;;;;;;;31.26;43.25;99137.14;432485;1271;97912;-43
2022/07/20 06:50:20;;;;;;;11.80;6.30;;;;;;;32.08;42.22;99134.76;432398;1273;111178;-44
2022/07/20 07:00:29;;;;;;;13.90;6.20;;;;;;;32.01;40.38;99134.01;432435;1271;109554;-44
2022/07/20 07:10:36;;;;;;;15.30;7.60;;;;;;;31.52;38.40;99132.59;432375;1271;97908;-44
2022/07/20 07:20:44;;;;;;;19.60;9.70;;;;;;;31.73;38.90;99140.80;432543;1270;111206;-44
2022/07/20 07:30:51;;;;;;;20.00;8.30;;;;;;;31.74;36.78;99141.92;433677;1268;108880;-43
2022/07/20 07:40:57;;;;;;;13.80;8.20;;;;;;;31.29;36.71;99146.52;433215;1268;98000;-48
2022/07/20 07:51:04;;;;;;;12.50;7.40;;;;;;;31.63;35.99;99151.70;433764;1268;109273;-44
2022/07/20 08:01:11;;;;;;;13.40;7.40;;;;;;;32.11;35.81;99146.38;433551;1268;97942;-44
2022/07/20 08:11:18;;;;;;;15.90;5.90;;;;;;;32.58;35.05;99147.77;433612;1268;109917;-44
2022/07/20 08:21:26;;;;;;;10.30;5.50;;;;;;;32.53;33.91;99145.89;433206;1267;108742;-44
2022/07/20 08:31:41;;;;;;;8.40;5.30;;;;;;;32.89;33.28;99148.59;433634;1268;96769;-46
2022/07/20 08:41:49;;;;;;;9.00;5.60;;;;;;;32.63;31.72;99147.39;433754;1268;108262;-44
2022/07/20 08:51:58;;;;;;;8.10;4.80;;;;;;;32.64;31.60;99139.74;433320;1268;97913;-44
2022/07/20 09:12:14;;;;;;;15.90;5.00;;;;;;;32.85;31.00;99144.05;433260;1268;109633;-43
2022/07/20 09:22:29;;;;;;;7.60;5.00;;;;;;;33.19;31.62;99144.06;433540;1268;97499;-43
2022/07/20 09:32:53;;;;;;;9.50;5.00;;;;;;;33.17;30.67;99141.77;433666;1267;111110;-44
2022/07/20 09:43:01;;;;;;;5.10;4.10;;;;;;;32.56;29.27;99137.87;433669;1267;108911;-43
2022/07/20 09:53:09;;;;;;;10.30;5.30;;;;;;;32.19;29.66;99128.02;433624;1268;97906;-45
2022/07/20 10:03:18;;;;;;;7.10;5.00;;;;;;;33.05;30.46;99126.30;433525;1268;111065;-44
2022/07/20 10:13:26;;;;;;;8.30;4.30;;;;;;;33.46;30.29;99112.77;433170;1268;108831;-46
2022/07/20 10:33:39;;;;;;;7.90;4.60;;;;;;;33.12;29.08;99107.01;433603;1268;111000;-45
2022/07/20 10:44:06;;;;;;;6.40;5.00;;;;;;;33.07;29.25;99100.98;433455;1268;108784;-44
2022/07/20 10:54:39;;;;;;;9.90;5.60;;;;;;;33.10;28.32;99094.36;433544;1268;96660;-45
2022/07/20 11:04:46;;;;;;;11.30;5.20;;;;;;;32.76;28.43;99095.05;433467;1268;110914;-44
2022/07/20 11:15:01;;;;;;;5.70;4.70;;;;;;;32.96;28.38;99091.10;433644;1268;109012;-43
2022/07/20 11:25:08;;;;;;;6.30;5.10;;;;;;;33.00;28.18;99089.52;433634;1268;97967;-43
2022/07/20 11:35:15;;;;;;;7.60;5.30;;;;;;;33.24;28.38;99083.70;433672;1268;110249;-45
2022/07/20 11:55:35;;;;;;;5.60;5.10;;;;;;;33.27;27.67;99073.23;434127;1266;97920;-42
2022/07/20 12:05:43;;;;;;;7.80;5.20;;;;;;;33.12;27.37;99073.89;433975;1266;111076;-43
2022/07/20 12:15:54;;;;;;;7.30;5.60;;;;;;;33.16;27.89;99061.81;434039;1267;108913;-45
2022/07/20 12:26:01;;;;;;;9.50;5.80;;;;;;;33.31;27.88;99057.57;434128;1266;97883;-42
2022/07/20 12:36:10;;;;;;;9.90;5.70;;;;;;;33.41;27.65;99060.48;433968;1267;109718;-46
2022/07/20 12:46:20;;;;;;;6.50;5.50;;;;;;;33.45;27.88;99053.77;434086;1267;108276;-43
2022/07/20 12:56:29;;;;;;;6.80;4.70;;;;;;;33.67;27.96;99053.75;434065;1267;97917;-45
2022/07/20 13:06:37;;;;;;;9.80;5.10;;;;;;;33.60;27.33;99045.67;434128;1267;111110;-43
2022/07/20 13:16:45;;;;;;;7.90;4.60;;;;;;;33.47;26.73;99043.16;434055;1267;107708;-46
2022/07/20 13:26:54;;;;;;;5.70;4.90;;;;;;;33.29;26.40;99027.31;434059;1267;97897;-43
2022/07/20 13:47:09;;;;;;;8.90;5.10;;;;;;;33.23;26.40;99014.70;434055;1267;107687;-43
2022/07/20 13:57:17;;;;;;;9.20;4.90;;;;;;;33.21;25.78;99012.48;434051;1267;97497;-43
2022/07/20 14:07:24;;;;;;;7.30;4.80;;;;;;;33.12;26.37;99001.40;434135;1267;111144;-46
2022/07/20 14:17:32;;;;;;;9.80;5.70;;;;;;;33.18;26.59;98992.02;433950;1267;108784;-43
2022/07/20 14:27:41;;;;;;;11.50;5.60;;;;;;;33.08;26.71;98985.69;433922;1267;97944;-44
2022/07/20 14:37:48;;;;;;;8.20;4.90;;;;;;;33.06;27.05;98976.64;434228;1267;110933;-46
2022/07/20 14:47:55;;;;;;;8.00;5.30;;;;;;;32.96;26.97;98975.05;434160;1266;107795;-44
2022/07/20 14:58:02;;;;;;;5.80;5.20;;;;;;;32.89;27.12;98967.96;433881;1267;97616;-43
2022/07/20 15:08:11;;;;;;;6.80;5.40;;;;;;;32.80;27.50;98968.77;434129;1266;111054;-44
2022/07/20 15:18:18;;;;;;;6.90;5.20;;;;;;;32.65;27.31;98965.40;434206;1266;110139;-42
2022/07/20 15:28:25;;;;;;;5.30;4.90;;;;;;;32.56;27.43;98957.98;434102;1267;97792;-46
2022/07/20 15:48:38;;;;;;;6.10;4.90;;;;;;;32.44;27.70;98956.48;434116;1267;108833;-44
2022/07/20 15:58:46;;;;;;;11.00;5.00;;;;;;;32.34;27.94;98951.54;433941;1266;97934;-45
2022/07/20 16:08:54;;;;;;;6.10;5.10;;;;;;;32.34;28.22;98941.70;434080;1267;111043;-43
2022/07/20 16:19:01;;;;;;;5.90;5.10;;;;;;;32.26;28.24;98941.48;434081;1267;108587;-45
2022/07/20 16:29:09;;;;;;;5.60;5.10;;;;;;;32.14;28.30;98941.96;434118;1267;97477;-47
2022/07/20 16:49:24;;;;;;;8.30;4.30;;;;;;;31.96;28.82;98936.81;433953;1267;97892;-44
2022/07/20 16:59:33;;;;;;;7.00;4.80;;;;;;;31.77;28.79;98932.48;433976;1267;111109;-43
2022/07/20 17:09:40;;;;;;;5.30;4.80;;;;;;;31.58;29.38;98929.94;433870;1267;108776;-45
2022/07/20 17:19:48;;;;;;;5.70;5.10;;;;;;;31.37;29.68;98919.98;434152;1267;97894;-45
2022/07/20 17:29:55;;;;;;;5.00;4.40;;;;;;;31.22;29.92;98916.48;434012;1267;110465;-45
2022/07/20 17:40:02;;;;;;;7.00;4.90;;;;;;;30.98;30.22;98910.98;433934;1267;108822;-44
2022/07/20 17:50:09;;;;;;;8.10;4.90;;;;;;;30.69;30.99;98911.04;434000;1267;97894;-45
2022/07/20 18:00:19;;;;;;;5.70;4.80;;;;;;;30.31;31.66;98906.87;434022;1267;111129;-46
2022/07/20 18:10:27;;;;;;;7.30;6.20;;;;;;;29.78;32.64;98906.77;433984;1267;108536;-44
2022/07/20 18:20:35;;;;;;;6.20;5.50;;;;;;;29.33;33.46;98902.19;434076;1267;97930;-44
2022/07/20 18:30:42;;;;;;;9.10;5.70;;;;;;;28.81;34.56;98898.66;434124;1266;110254;-43
2022/07/20 18:50:57;;;;;;;13.60;5.80;;;;;;;27.50;37.04;98919.14;434079;1267;97890;-44
2022/07/20 19:01:05;;;;;;;8.50;7.40;;;;;;;26.94;38.06;98926.05;433917;1267;111115;-44
2022/07/20 19:11:12;;;;;;;11.70;7.60;;;;;;;26.35;39.55;98928.99;433979;1267;108832;-43
2022/07/20 19:21:20;;;;;;;14.10;7.20;;;;;;;25.97;40.25;98932.23;433914;1267;98249;-43
2022/07/20 19:31:27;;;;;;;8.50;7.10;;;;;;;25.69;40.98;98939.83;433887;1267;111036;-48
2022/07/20 19:41:34;;;;;;;9.10;6.50;;;;;;;25.50;41.80;98941.02;433920;1267;108925;-43
2022/07/20 19:51:40;;;;;;;;;;;;;;;25.33;42.32;98937.58;433995;1267;97893;-43
2022/07/20 20:01:47;;;;;;;9.50;5.50;;;;;;;25.34;42.69;98935.29;433891;1267;110170;-47
2022/07/20 20:11:55;;;;;;;9.10;6.60;;;;;;;25.44;42.53;98938.20;434041;1267;108833;-43
2022/07/20 20:22:02;;;;;;;12.00;6.70;;;;;;;25.38;42.48;98936.48;434025;1267;97056;-43
2022/07/20 20:32:10;;;;;;;8.80;6.50;;;;;;;25.19;42.79;98921.08;434186;1267;111095;-46
2022/07/20 20:42:18;;;;;;;9.60;5.60;;;;;;;25.10;42.73;98921.23;434046;1267;108756;-43
2022/07/20 20:52:24;;;;;;;10.50;5.70;;;;;;;24.97;43.11;98919.11;433905;1266;96584;-45
2022/07/20 21:02:32;;;;;;;24.60;6.70;;;;;;;24.82;43.09;98919.39;434021;1267;110366;-45
2022/07/20 21:12:44;;;;;;;9.80;6.90;;;;;;;24.42;43.44;98916.27;434160;1266;108900;-45
2022/07/20 21:22:51;;;;;;;14.40;7.30;;;;;;;23.89;44.40;98927.06;434010;1268;97893;-44
2022/07/20 21:33:35;;;;;;;10.70;6.80;;;;;;;23.49;45.35;98928.67;434029;1267;111517;-46
2022/07/20 21:43:41;;;;;;;7.40;5.70;;;;;;;23.25;45.82;98943.76;434072;1268;108932;-44
2022/07/20 21:53:49;;;;;;;6.40;5.70;;;;;;;23.08;46.19;98946.42;434146;1268;96603;-44
2022/07/20 22:03:57;;;;;;;8.30;6.20;;;;;;;23.00;46.50;98948.55;434110;1268;111084;-45
2022/07/20 22:14:03;;;;;;;10.40;6.20;;;;;;;23.09;46.60;98953.13;434103;1267;108825;-43
2022/07/20 22:24:10;;;;;;;7.30;6.10;;;;;;;23.30;46.35;98948.02;434038;1267;97865;-45
2022/07/20 22:34:16;;;;;;;7.40;6.60;;;;;;;23.44;46.33;98946.84;434136;1268;111045;-46
2022/07/20 22:44:23;;;;;;;7.70;6.20;;;;;;;23.54;46.18;98948.58;434080;1268;108887;-44
2022/07/20 22:54:31;;;;;;;9.80;6.40;;;;;;;23.40;46.28;98951.23;433948;1266;97907;-44
2022/07/20 23:04:38;;;;;;;9.40;6.10;;;;;;;23.26;46.51;98954.15;433814;1266;111334;-47
2022/07/20 23:14:46;;;;;;;10.00;6.40;;;;;;;23.10;46.75;98964.75;433886;1268;108674;-43
2022/07/20 23:24:53;;;;;;;8.90;5.70;;;;;;;22.88;46.92;98962.54;433571;1267;96982;-45
2022/07/20 23:35:00;;;;;;;9.30;6.20;;;;;;;22.49;47.46;98955.98;433895;1267;110224;-48
2022/07/20 23:45:10;;;;;;;9.40;6.90;;;;;;;22.06;48.07;98954.73;433516;1267;723454;-45
2022/07/20 23:55:17;;;;;;;8.30;6.00;;;;;;;21.71;48.84;98958.10;434010;1267;97909;-44
